Time;durP1;ratioP1;P1;durP2;ratioP2;P2;SDS_P1;SDS_P2;PMS_P1;PMS_P2;Temp;Humidity;BMP_temperature;BMP_pressure;BME280_temperature;BME280_humidity;BME280_pressure;Samples;Min_cycle;Max_cycle;Signal;HPM_P1;HPM_P2
2024/01/15 00:00:58;;;;;;;24.33;11.43;;;;;;;;;;4950816;28;20047;-63
2024/01/15 00:03:25;;;;;;;21.55;10.63;;;;;;;;;;4951636;29;20199;-64
2024/01/15 00:05:51;;;;;;;20.92;11.48;;;;;;;;;;4951575;29;20086;-65
2024/01/15 00:08:18;;;;;;;23.80;10.77;;;;;;;;;;4950451;28;20062;-66
2024/01/15 00:10:44;;;;;;;22.10;10.60;;;;;;;;;;4950784;28;20142;-64
2024/01/15 00:13:10;;;;;;;27.58;12.07;;;;;;;;;;4951431;29;20407;-64
2024/01/15 00:15:37;;;;;;;20.17;10.18;;;;;;;;;;4934494;29;20055;-63
2024/01/15 00:18:03;;;;;;;22.45;10.70;;;;;;;;;;4951084;29;20296;-64
2024/01/15 00:20:30;;;;;;;22.08;11.43;;;;;;;;;;4951309;29;20069;-66
2024/01/15 00:22:56;;;;;;;21.75;10.20;;;;;;;;;;4951366;29;20138;-64
2024/01/15 00:25:23;;;;;;;22.15;10.00;;;;;;;;;;4951614;29;20051;-64
2024/01/15 00:27:50;;;;;;;17.55;8.13;;;;;;;;;;4933969;29;20077;-64
2024/01/15 00:30:16;;;;;;;18.00;9.50;;;;;;;;;;4951159;29;20047;-64
2024/01/15 00:32:43;;;;;;;20.17;11.05;;;;;;;;;;4951503;29;20043;-64
2024/01/15 00:35:09;;;;;;;18.58;9.68;;;;;;;;;;4951219;29;20054;-65
2024/01/15 00:37:36;;;;;;;19.23;9.43;;;;;;;;;;4950494;29;20094;-65
2024/01/15 00:40:03;;;;;;;17.58;8.63;;;;;;;;;;4949637;28;20047;-65
2024/01/15 00:42:29;;;;;;;16.88;8.43;;;;;;;;;;4950875;29;20483;-65
2024/01/15 00:44:56;;;;;;;16.70;8.15;;;;;;;;;;4950459;29;20142;-65
2024/01/15 00:47:22;;;;;;;26.48;9.57;;;;;;;;;;4933318;29;20072;-65
2024/01/15 00:49:48;;;;;;;19.98;8.40;;;;;;;;;;4950832;29;20828;-65
2024/01/15 00:52:15;;;;;;;22.10;8.68;;;;;;;;;;4951749;28;20051;-69
2024/01/15 00:54:41;;;;;;;21.17;9.43;;;;;;;;;;4952756;29;20135;-65
2024/01/15 00:57:08;;;;;;;18.30;8.55;;;;;;;;;;4950582;29;20055;-66
2024/01/15 00:59:34;;;;;;;17.52;9.15;;;;;;;;;;4930629;29;20063;-65
2024/01/15 01:02:02;;;;;;;17.40;9.45;;;;;;;;;;4931708;29;20080;-65
2024/01/15 01:04:28;;;;;;;23.35;10.23;;;;;;;;;;4931343;29;20094;-65
2024/01/15 01:06:55;;;;;;;16.27;8.52;;;;;;;;;;4948154;29;20047;-65
2024/01/15 01:09:21;;;;;;;22.40;9.48;;;;;;;;;;4932564;29;20059;-65
2024/01/15 01:11:48;;;;;;;18.88;8.75;;;;;;;;;;4948974;28;20123;-65
2024/01/15 01:14:14;;;;;;;17.58;9.20;;;;;;;;;;4950038;29;20177;-65
2024/01/15 01:16:41;;;;;;;19.17;9.80;;;;;;;;;;4950084;29;20047;-65
2024/01/15 01:19:07;;;;;;;24.48;10.75;;;;;;;;;;4932745;29;20149;-67
2024/01/15 01:21:34;;;;;;;23.25;10.00;;;;;;;;;;4949950;29;20054;-63
2024/01/15 01:24:01;;;;;;;19.27;10.68;;;;;;;;;;4950360;29;20153;-63
2024/01/15 01:26:27;;;;;;;23.25;11.07;;;;;;;;;;4950135;29;20114;-62
2024/01/15 01:28:54;;;;;;;24.20;12.07;;;;;;;;;;4949741;29;20613;-62
2024/01/15 01:31:20;;;;;;;19.13;10.77;;;;;;;;;;4950174;29;20132;-63
2024/01/15 01:33:47;;;;;;;24.85;11.23;;;;;;;;;;4950072;29;20055;-62
2024/01/15 01:36:13;;;;;;;24.30;10.60;;;;;;;;;;4932746;29;20106;-63
2024/01/15 01:38:40;;;;;;;24.60;10.70;;;;;;;;;;4949986;29;20079;-62
2024/01/15 01:41:06;;;;;;;23.85;11.38;;;;;;;;;;4932728;29;20051;-63
2024/01/15 01:43:33;;;;;;;23.75;11.90;;;;;;;;;;4949320;28;20058;-63
2024/01/15 01:46:00;;;;;;;22.77;10.63;;;;;;;;;;4932805;29;20086;-63
2024/01/15 01:48:27;;;;;;;23.70;10.98;;;;;;;;;;4949570;29;20067;-64
2024/01/15 01:50:54;;;;;;;22.35;11.00;;;;;;;;;;4949876;28;20043;-64
2024/01/15 01:53:21;;;;;;;20.60;10.48;;;;;;;;;;4950031;29;20059;-64
2024/01/15 01:55:48;;;;;;;21.98;11.02;;;;;;;;;;4949628;29;20047;-64
2024/01/15 01:58:14;;;;;;;23.90;10.68;;;;;;;;;;4949167;29;20051;-64
2024/01/15 02:00:41;;;;;;;18.17;9.27;;;;;;;;;;4949320;29;20110;-64
2024/01/15 02:03:08;;;;;;;20.80;11.23;;;;;;;;;;4932616;29;20083;-64
2024/01/15 02:05:35;;;;;;;15.32;7.78;;;;;;;;;;4949622;29;20055;-64
2024/01/15 02:08:01;;;;;;;20.77;9.60;;;;;;;;;;4949209;29;20047;-64
2024/01/15 02:10:28;;;;;;;19.88;9.68;;;;;;;;;;4949455;28;20114;-64
2024/01/15 02:12:54;;;;;;;20.73;10.35;;;;;;;;;;4948177;28;20497;-66
2024/01/15 02:15:20;;;;;;;19.20;10.25;;;;;;;;;;4949378;29;20055;-64
2024/01/15 02:18:16;;;;;;;23.63;10.95;;;;;;;;;;4949105;29;20044;-64
2024/01/15 02:20:44;;;;;;;15.25;8.20;;;;;;;;;;4937053;29;20665;-64
2024/01/15 02:23:11;;;;;;;21.58;10.15;;;;;;;;;;4949644;28;20051;-64
2024/01/15 02:25:45;;;;;;;21.38;10.40;;;;;;;;;;4953202;29;20048;-64
2024/01/15 02:28:12;;;;;;;17.63;9.63;;;;;;;;;;4952926;29;20051;-64
2024/01/15 02:30:39;;;;;;;19.65;9.82;;;;;;;;;;4953191;29;20095;-64
2024/01/15 02:33:06;;;;;;;23.23;11.02;;;;;;;;;;4953287;29;20500;-64
2024/01/15 02:35:33;;;;;;;20.45;9.98;;;;;;;;;;4953601;29;20568;-65
2024/01/15 02:38:00;;;;;;;21.48;10.30;;;;;;;;;;4953022;29;20055;-65
2024/01/15 02:40:26;;;;;;;19.10;9.27;;;;;;;;;;4936038;29;20127;-64
2024/01/15 02:42:52;;;;;;;17.30;10.32;;;;;;;;;;4951968;28;20058;-65
2024/01/15 02:45:19;;;;;;;20.25;10.20;;;;;;;;;;4952925;29;20520;-63
2024/01/15 02:47:46;;;;;;;17.63;8.93;;;;;;;;;;4952681;29;20062;-65
2024/01/15 02:50:13;;;;;;;17.55;8.60;;;;;;;;;;4953921;29;20054;-64
2024/01/15 02:52:39;;;;;;;18.90;8.90;;;;;;;;;;4953977;28;20090;-64
2024/01/15 02:55:06;;;;;;;15.90;8.13;;;;;;;;;;4937383;29;20271;-65
2024/01/15 02:57:32;;;;;;;16.15;7.68;;;;;;;;;;4952290;29;20053;-64
2024/01/15 02:59:59;;;;;;;15.25;7.32;;;;;;;;;;4952571;29;20063;-65
2024/01/15 03:02:25;;;;;;;16.63;8.77;;;;;;;;;;4952693;29;20141;-64
2024/01/15 03:04:52;;;;;;;14.93;7.20;;;;;;;;;;4952699;29;20661;-65
2024/01/15 03:07:18;;;;;;;20.27;8.32;;;;;;;;;;4952166;29;20165;-66
2024/01/15 03:09:44;;;;;;;17.60;7.13;;;;;;;;;;4952763;29;20048;-65
2024/01/15 03:12:11;;;;;;;16.00;7.38;;;;;;;;;;4952425;29;20167;-65
2024/01/15 03:14:37;;;;;;;16.42;6.78;;;;;;;;;;4951660;28;20051;-65
2024/01/15 03:17:04;;;;;;;14.63;6.32;;;;;;;;;;4952309;29;20504;-66
2024/01/15 03:19:30;;;;;;;14.30;6.68;;;;;;;;;;4952490;29;20047;-65
2024/01/15 03:21:57;;;;;;;12.27;6.25;;;;;;;;;;4952740;29;20047;-65
2024/01/15 03:24:24;;;;;;;12.27;6.70;;;;;;;;;;4952295;29;20520;-65
2024/01/15 03:26:50;;;;;;;18.48;7.05;;;;;;;;;;4952173;29;20066;-65
2024/01/15 03:29:17;;;;;;;13.98;6.10;;;;;;;;;;4951466;29;20583;-65
2024/01/15 03:31:43;;;;;;;18.33;6.47;;;;;;;;;;4952611;29;20576;-65
2024/01/15 03:34:09;;;;;;;12.02;5.95;;;;;;;;;;4934080;28;20492;-66
2024/01/15 03:36:36;;;;;;;16.65;7.25;;;;;;;;;;4950255;29;20049;-65
2024/01/15 03:39:02;;;;;;;13.43;7.47;;;;;;;;;;4951431;29;20055;-65
2024/01/15 03:41:29;;;;;;;14.48;6.68;;;;;;;;;;4952037;29;20633;-65
2024/01/15 03:43:55;;;;;;;13.55;5.32;;;;;;;;;;4951038;28;20039;-66
2024/01/15 03:46:22;;;;;;;13.60;6.18;;;;;;;;;;4952076;29;20083;-70
2024/01/15 03:48:48;;;;;;;17.58;6.30;;;;;;;;;;4951820;29;20059;-66
2024/01/15 03:51:17;;;;;;;19.30;6.88;;;;;;;;;;4951618;28;20059;-65
2024/01/15 03:53:44;;;;;;;15.68;6.13;;;;;;;;;;4952252;29;20396;-65
2024/01/15 03:56:10;;;;;;;12.63;5.70;;;;;;;;;;4934365;29;20079;-65
2024/01/15 03:58:37;;;;;;;10.68;5.43;;;;;;;;;;4931107;29;20052;-65
2024/01/15 04:01:03;;;;;;;13.35;5.75;;;;;;;;;;4932800;29;20075;-65
2024/01/15 04:03:30;;;;;;;15.10;5.72;;;;;;;;;;4932765;29;20052;-65
2024/01/15 04:05:57;;;;;;;17.02;6.05;;;;;;;;;;4941480;29;20058;-65
2024/01/15 04:08:23;;;;;;;13.70;5.55;;;;;;;;;;4934183;29;20055;-66
2024/01/15 04:10:50;;;;;;;11.75;4.78;;;;;;;;;;4951595;29;20121;-66
2024/01/15 04:13:16;;;;;;;15.70;4.68;;;;;;;;;;4951611;28;20134;-66
2024/01/15 04:15:42;;;;;;;11.55;5.15;;;;;;;;;;4950721;28;20589;-65
2024/01/15 04:18:09;;;;;;;9.77;5.07;;;;;;;;;;4933603;29;20102;-65
2024/01/15 04:20:36;;;;;;;9.93;4.78;;;;;;;;;;4951118;29;20416;-66
2024/01/15 04:23:02;;;;;;;14.88;5.00;;;;;;;;;;4933976;29;20058;-65
2024/01/15 04:25:29;;;;;;;10.82;4.30;;;;;;;;;;4933856;29;20051;-66
2024/01/15 04:27:55;;;;;;;16.00;4.05;;;;;;;;;;4950986;29;20480;-66
2024/01/15 04:30:21;;;;;;;13.02;4.18;;;;;;;;;;4950904;29;20055;-65
2024/01/15 04:32:48;;;;;;;13.93;4.88;;;;;;;;;;4951216;29;20078;-65
2024/01/15 04:35:15;;;;;;;10.18;3.47;;;;;;;;;;4950811;29;20403;-65
2024/01/15 04:37:41;;;;;;;7.32;3.78;;;;;;;;;;4933565;29;20059;-66
2024/01/15 04:40:08;;;;;;;9.82;3.95;;;;;;;;;;4950473;29;20074;-65
2024/01/15 04:42:35;;;;;;;11.23;4.47;;;;;;;;;;4951141;29;20680;-65
2024/01/15 04:45:01;;;;;;;12.13;3.95;;;;;;;;;;4950610;28;20125;-65
2024/01/15 04:47:27;;;;;;;16.02;4.65;;;;;;;;;;4949287;28;20058;-66
2024/01/15 04:49:54;;;;;;;17.63;4.10;;;;;;;;;;4933364;29;20542;-65
2024/01/15 04:52:20;;;;;;;9.35;4.53;;;;;;;;;;4933128;29;20058;-64
2024/01/15 04:54:47;;;;;;;12.75;4.63;;;;;;;;;;4950758;29;20462;-66
2024/01/15 04:57:13;;;;;;;13.48;3.65;;;;;;;;;;4950042;29;20143;-65
2024/01/15 04:59:40;;;;;;;10.05;3.70;;;;;;;;;;4950883;29;20059;-64
2024/01/15 05:02:07;;;;;;;16.05;5.32;;;;;;;;;;4950551;29;20484;-64
2024/01/15 05:04:33;;;;;;;12.93;3.95;;;;;;;;;;4950450;29;20142;-65
2024/01/15 05:07:00;;;;;;;13.75;4.97;;;;;;;;;;4950372;29;20331;-65
2024/01/15 05:09:26;;;;;;;7.05;3.17;;;;;;;;;;4949865;28;20062;-65
2024/01/15 05:11:57;;;;;;;12.18;4.75;;;;;;;;;;4950180;29;20063;-65
2024/01/15 05:14:23;;;;;;;13.80;3.65;;;;;;;;;;4950413;28;20078;-65
2024/01/15 05:16:50;;;;;;;17.00;4.65;;;;;;;;;;4949256;28;20137;-65
2024/01/15 05:19:17;;;;;;;13.32;4.25;;;;;;;;;;4932615;29;20496;-65
2024/01/15 05:21:44;;;;;;;11.82;3.92;;;;;;;;;;4950285;29;20545;-66
2024/01/15 05:24:10;;;;;;;24.60;3.88;;;;;;;;;;4949724;29;20106;-65
2024/01/15 05:26:37;;;;;;;10.70;4.15;;;;;;;;;;4949974;29;20051;-65
2024/01/15 05:29:03;;;;;;;7.70;3.50;;;;;;;;;;4949542;29;20067;-65
2024/01/15 05:31:30;;;;;;;11.60;4.72;;;;;;;;;;4950168;29;20043;-66
2024/01/15 05:33:56;;;;;;;8.32;3.67;;;;;;;;;;4933003;29;20118;-65
2024/01/15 05:36:23;;;;;;;7.00;3.35;;;;;;;;;;4949866;29;20114;-65
2024/01/15 05:38:49;;;;;;;10.68;3.42;;;;;;;;;;4949558;29;20563;-64
2024/01/15 05:41:16;;;;;;;16.10;3.95;;;;;;;;;;4950101;29;20059;-65
2024/01/15 05:43:42;;;;;;;8.13;3.65;;;;;;;;;;4950247;29;20058;-65
2024/01/15 05:46:09;;;;;;;16.67;4.55;;;;;;;;;;4949863;29;20051;-64
2024/01/15 05:48:35;;;;;;;9.82;3.95;;;;;;;;;;4948656;28;20055;-64
2024/01/15 05:51:02;;;;;;;9.77;3.80;;;;;;;;;;4949669;28;20401;-64
2024/01/15 05:53:29;;;;;;;12.20;3.92;;;;;;;;;;4932778;29;20062;-64
2024/01/15 05:55:56;;;;;;;11.82;2.97;;;;;;;;;;4949688;29;20170;-63
2024/01/15 05:58:22;;;;;;;10.50;3.42;;;;;;;;;;4948971;29;20074;-64
2024/01/15 06:00:49;;;;;;;10.27;4.00;;;;;;;;;;4949463;29;20051;-63
2024/01/15 06:03:16;;;;;;;14.98;3.10;;;;;;;;;;4949731;29;20507;-64
2024/01/15 06:05:43;;;;;;;11.13;2.78;;;;;;;;;;4949757;29;20050;-64
2024/01/15 06:08:09;;;;;;;4.88;1.83;;;;;;;;;;4949255;29;20153;-64
2024/01/15 06:10:36;;;;;;;12.88;3.08;;;;;;;;;;4949606;28;20138;-64
2024/01/15 06:13:02;;;;;;;11.82;3.42;;;;;;;;;;4949693;28;20061;-67
2024/01/15 06:15:28;;;;;;;5.35;2.38;;;;;;;;;;4949751;28;20114;-64
2024/01/15 06:17:55;;;;;;;6.40;2.75;;;;;;;;;;4948388;28;20057;-66
2024/01/15 06:20:21;;;;;;;14.13;2.70;;;;;;;;;;4949698;29;20624;-64
2024/01/15 06:22:48;;;;;;;5.70;2.70;;;;;;;;;;4949462;29;20058;-64
2024/01/15 06:25:14;;;;;;;8.40;3.25;;;;;;;;;;4949843;29;20472;-66
2024/01/15 06:27:41;;;;;;;9.68;2.65;;;;;;;;;;4951266;29;20055;-67
2024/01/15 06:30:08;;;;;;;9.00;2.90;;;;;;;;;;4951996;29;20055;-64
2024/01/15 06:32:34;;;;;;;19.40;3.55;;;;;;;;;;4950466;29;20153;-62
2024/01/15 06:35:01;;;;;;;12.90;2.63;;;;;;;;;;4933036;29;20095;-63
2024/01/15 06:37:27;;;;;;;10.00;2.47;;;;;;;;;;4950409;29;20058;-65
2024/01/15 06:39:54;;;;;;;14.70;3.40;;;;;;;;;;4949718;29;20610;-63
2024/01/15 06:42:21;;;;;;;15.73;3.42;;;;;;;;;;4949778;29;20094;-63
2024/01/15 06:44:48;;;;;;;9.50;2.55;;;;;;;;;;4949859;29;20059;-63
2024/01/15 06:47:17;;;;;;;12.27;2.35;;;;;;;;;;4949019;29;20143;-63
2024/01/15 06:49:43;;;;;;;7.75;2.35;;;;;;;;;;4948347;28;20543;-63
2024/01/15 06:52:12;;;;;;;18.85;4.05;;;;;;;;;;4948681;28;20584;-63
2024/01/15 06:54:38;;;;;;;9.95;2.47;;;;;;;;;;4949231;29;20575;-63
2024/01/15 06:57:06;;;;;;;7.20;2.15;;;;;;;;;;4949260;29;20150;-63
2024/01/15 06:59:33;;;;;;;10.02;2.95;;;;;;;;;;4949682;29;20078;-63
2024/01/15 07:02:00;;;;;;;6.22;2.05;;;;;;;;;;4949731;29;20110;-64
2024/01/15 07:04:26;;;;;;;11.18;2.85;;;;;;;;;;4948995;29;20162;-64
2024/01/15 07:06:53;;;;;;;12.90;2.42;;;;;;;;;;4949964;29;20572;-66
2024/01/15 07:09:19;;;;;;;7.88;2.08;;;;;;;;;;4950098;28;20055;-69
2024/01/15 07:11:46;;;;;;;6.57;2.45;;;;;;;;;;4953222;28;20448;-65
2024/01/15 07:14:13;;;;;;;15.52;2.97;;;;;;;;;;4953103;28;20055;-64
2024/01/15 07:16:39;;;;;;;9.65;2.55;;;;;;;;;;4953232;29;20078;-64
2024/01/15 07:19:06;;;;;;;8.48;2.28;;;;;;;;;;4952130;28;20078;-64
2024/01/15 07:21:32;;;;;;;16.10;3.03;;;;;;;;;;4953207;29;20393;-65
2024/01/15 07:23:59;;;;;;;13.30;2.55;;;;;;;;;;4952995;29;20053;-64
2024/01/15 07:26:25;;;;;;;7.32;2.17;;;;;;;;;;4952496;29;20106;-64
2024/01/15 07:28:52;;;;;;;8.48;1.98;;;;;;;;;;4952212;29;20051;-64
2024/01/15 07:31:19;;;;;;;11.00;2.40;;;;;;;;;;4951986;29;20055;-64
2024/01/15 07:33:46;;;;;;;10.90;2.65;;;;;;;;;;4952532;29;20388;-65
2024/01/15 07:36:13;;;;;;;11.68;2.80;;;;;;;;;;4952063;29;20051;-64
2024/01/15 07:38:39;;;;;;;16.35;2.53;;;;;;;;;;4951581;29;20542;-66
2024/01/15 07:41:05;;;;;;;9.45;2.03;;;;;;;;;;4952250;29;20043;-66
2024/01/15 07:43:32;;;;;;;6.70;2.35;;;;;;;;;;4952248;29;20051;-65
2024/01/15 07:45:58;;;;;;;19.00;2.20;;;;;;;;;;4934651;29;20051;-64
2024/01/15 07:48:25;;;;;;;10.30;3.20;;;;;;;;;;4934541;29;20059;-65
2024/01/15 07:50:52;;;;;;;10.88;2.13;;;;;;;;;;4946891;28;20059;-66
2024/01/15 07:53:18;;;;;;;9.88;2.50;;;;;;;;;;4951679;29;20102;-65
2024/01/15 07:55:46;;;;;;;8.48;2.97;;;;;;;;;;4951609;29;20128;-66
2024/01/15 07:58:12;;;;;;;9.13;2.85;;;;;;;;;;4951419;29;20043;-66
2024/01/15 08:00:42;;;;;;;8.80;2.35;;;;;;;;;;4948173;29;20054;-66
2024/01/15 08:03:09;;;;;;;10.20;2.88;;;;;;;;;;4932564;29;20048;-65
2024/01/15 08:05:35;;;;;;;14.55;2.03;;;;;;;;;;4937714;29;20047;-65
2024/01/15 08:08:02;;;;;;;10.55;2.80;;;;;;;;;;4949748;29;20125;-64
2024/01/15 08:10:29;;;;;;;10.93;2.88;;;;;;;;;;4950202;29;20654;-64
2024/01/15 08:12:55;;;;;;;11.30;2.65;;;;;;;;;;4950020;28;20054;-64
2024/01/15 08:15:21;;;;;;;7.97;1.98;;;;;;;;;;4949962;28;20047;-65
2024/01/15 08:17:48;;;;;;;8.38;2.08;;;;;;;;;;4949427;28;20090;-64
2024/01/15 08:20:16;;;;;;;9.02;2.67;;;;;;;;;;4949444;28;20047;-65
2024/01/15 08:22:42;;;;;;;11.35;2.08;;;;;;;;;;4933530;29;20082;-63
2024/01/15 08:25:09;;;;;;;8.77;1.95;;;;;;;;;;4951276;29;20146;-65
2024/01/15 08:27:35;;;;;;;6.15;2.30;;;;;;;;;;4950976;29;20255;-63
2024/01/15 08:30:04;;;;;;;6.90;2.50;;;;;;;;;;4951358;29;20511;-64
2024/01/15 08:32:30;;;;;;;7.78;2.55;;;;;;;;;;4951144;29;20531;-65
2024/01/15 08:34:57;;;;;;;8.52;2.10;;;;;;;;;;4950928;29;20051;-64
2024/01/15 08:37:23;;;;;;;16.90;2.35;;;;;;;;;;4950804;29;20111;-64
2024/01/15 08:39:49;;;;;;;10.82;2.45;;;;;;;;;;4951232;29;20090;-64
2024/01/15 08:42:17;;;;;;;8.60;2.85;;;;;;;;;;4951111;29;20082;-64
2024/01/15 08:44:44;;;;;;;6.70;2.20;;;;;;;;;;4951286;29;20512;-64
2024/01/15 08:47:10;;;;;;;13.20;2.90;;;;;;;;;;4933557;29;20054;-64
2024/01/15 08:49:37;;;;;;;8.40;2.10;;;;;;;;;;4950527;28;20058;-64
2024/01/15 08:52:04;;;;;;;8.82;2.00;;;;;;;;;;4949540;28;20062;-64
2024/01/15 08:54:30;;;;;;;14.73;2.92;;;;;;;;;;4933839;29;20055;-64
2024/01/15 08:56:57;;;;;;;9.77;2.40;;;;;;;;;;4950709;29;20047;-65
2024/01/15 08:59:25;;;;;;;13.88;3.17;;;;;;;;;;4950509;29;20051;-64
2024/01/15 09:01:53;;;;;;;12.73;2.17;;;;;;;;;;4950871;29;20065;-65
2024/01/15 09:04:19;;;;;;;7.40;2.45;;;;;;;;;;4951923;29;20134;-65
2024/01/15 09:06:49;;;;;;;6.47;2.25;;;;;;;;;;4950906;29;20058;-65
2024/01/15 09:09:15;;;;;;;11.35;3.25;;;;;;;;;;4950224;29;20066;-65
2024/01/15 09:11:42;;;;;;;10.68;3.28;;;;;;;;;;4950465;29;20140;-65
2024/01/15 09:14:09;;;;;;;7.70;2.78;;;;;;;;;;4950073;29;20055;-65
2024/01/15 09:16:35;;;;;;;7.32;2.10;;;;;;;;;;4933275;29;20639;-65
2024/01/15 09:19:03;;;;;;;9.23;2.42;;;;;;;;;;4950107;28;20118;-65
2024/01/15 09:21:29;;;;;;;11.23;2.78;;;;;;;;;;4949263;28;20058;-65
2024/01/15 09:23:56;;;;;;;13.82;2.10;;;;;;;;;;4950486;29;20456;-65
2024/01/15 09:26:22;;;;;;;8.10;2.15;;;;;;;;;;4950158;29;20059;-66
2024/01/15 09:28:49;;;;;;;14.13;3.17;;;;;;;;;;4949790;29;20051;-67
2024/01/15 09:31:17;;;;;;;9.85;2.10;;;;;;;;;;4950207;29;20051;-66
2024/01/15 09:33:44;;;;;;;11.43;3.92;;;;;;;;;;4950440;28;20137;-67
2024/01/15 09:36:10;;;;;;;6.35;1.90;;;;;;;;;;4950244;29;20051;-68
2024/01/15 09:38:36;;;;;;;3.90;2.20;;;;;;;;;;4950083;29;20051;-64
2024/01/15 09:41:03;;;;;;;8.48;2.40;;;;;;;;;;4949978;29;20514;-66
2024/01/15 09:43:30;;;;;;;7.80;3.00;;;;;;;;;;4949812;29;20109;-67
2024/01/15 09:45:57;;;;;;;6.85;2.63;;;;;;;;;;4950426;29;20098;-65
2024/01/15 09:48:23;;;;;;;7.10;2.42;;;;;;;;;;4949498;29;20142;-67
2024/01/15 09:50:50;;;;;;;4.85;2.63;;;;;;;;;;4949396;28;20051;-67
2024/01/15 09:53:17;;;;;;;6.80;2.15;;;;;;;;;;4948844;28;20079;-67
2024/01/15 09:55:43;;;;;;;14.55;3.08;;;;;;;;;;4950022;29;20062;-65
2024/01/15 09:58:10;;;;;;;4.38;2.90;;;;;;;;;;4949108;29;20043;-65
2024/01/15 10:00:38;;;;;;;6.28;2.00;;;;;;;;;;4949506;29;20110;-65
2024/01/15 10:03:06;;;;;;;8.90;2.42;;;;;;;;;;4949733;29;20398;-67
2024/01/15 10:05:33;;;;;;;11.55;2.60;;;;;;;;;;4949673;29;20052;-64
2024/01/15 10:08:00;;;;;;;4.82;1.60;;;;;;;;;;4950118;29;20145;-65
2024/01/15 10:10:27;;;;;;;5.90;2.47;;;;;;;;;;4934300;29;20059;-65
2024/01/15 10:12:54;;;;;;;6.03;2.35;;;;;;;;;;4949707;29;20142;-65
2024/01/15 10:15:26;;;;;;;5.53;2.28;;;;;;;;;;4949678;28;20063;-67
2024/01/15 10:17:52;;;;;;;;;;;;;;;;;;4949529;29;20058;-65
2024/01/15 10:20:22;;;;;;;6.28;2.67;;;;;;;;;;4949635;29;19969;-65
2024/01/15 10:22:50;;;;;;;8.57;2.67;;;;;;;;;;4931705;29;20669;-65
2024/01/15 10:25:22;;;;;;;6.25;2.17;;;;;;;;;;4949685;29;20333;-67
2024/01/15 10:27:58;;;;;;;8.32;2.67;;;;;;;;;;4949347;29;20051;-67
2024/01/15 10:30:25;;;;;;;11.10;2.03;;;;;;;;;;4949594;29;20829;-66
2024/01/15 10:33:01;;;;;;;9.52;2.47;;;;;;;;;;4949507;29;20150;-68
2024/01/15 10:35:31;;;;;;;5.82;3.10;;;;;;;;;;4949569;29;20043;-67
2024/01/15 10:37:59;;;;;;;5.40;2.13;;;;;;;;;;4932107;29;20082;-64
2024/01/15 10:40:25;;;;;;;6.45;2.42;;;;;;;;;;4949447;29;20048;-66
2024/01/15 10:42:52;;;;;;;8.32;2.25;;;;;;;;;;4949572;29;20063;-65
2024/01/15 10:45:18;;;;;;;9.32;2.22;;;;;;;;;;4951677;28;20556;-65
2024/01/15 10:47:45;;;;;;;4.72;1.98;;;;;;;;;;4953023;29;20043;-65
2024/01/15 10:50:12;;;;;;;11.60;2.63;;;;;;;;;;4953349;29;20058;-65
2024/01/15 10:52:45;;;;;;;8.23;1.88;;;;;;;;;;4949332;28;20531;-66
2024/01/15 10:55:12;;;;;;;4.25;2.13;;;;;;;;;;4951746;28;20492;-66
2024/01/15 10:57:46;;;;;;;4.85;2.20;;;;;;;;;;4945916;29;20055;-66
2024/01/15 11:00:14;;;;;;;5.55;2.53;;;;;;;;;;4932647;29;20507;-65
2024/01/15 11:02:42;;;;;;;3.38;1.88;;;;;;;;;;4933709;29;20629;-66
2024/01/15 11:05:08;;;;;;;4.05;2.17;;;;;;;;;;4936032;29;20567;-66
2024/01/15 11:07:35;;;;;;;5.10;2.00;;;;;;;;;;4952200;28;20054;-67
2024/01/15 11:10:05;;;;;;;7.88;2.28;;;;;;;;;;4952796;28;20075;-67
2024/01/15 11:12:32;;;;;;;9.38;2.55;;;;;;;;;;4935616;29;20436;-66
2024/01/15 11:15:08;;;;;;;6.25;2.47;;;;;;;;;;4935629;29;20047;-67
2024/01/15 11:17:54;;;;;;;6.38;2.65;;;;;;;;;;4952362;29;20055;-64
2024/01/15 11:20:21;;;;;;;4.43;2.85;;;;;;;;;;4952806;29;20134;-66
2024/01/15 11:22:48;;;;;;;5.25;2.50;;;;;;;;;;4951540;28;20136;-67
2024/01/15 11:25:15;;;;;;;18.77;2.88;;;;;;;;;;4952540;29;20452;-67
2024/01/15 11:27:47;;;;;;;7.47;2.90;;;;;;;;;;4952393;29;20488;-67
2024/01/15 11:30:14;;;;;;;7.10;2.97;;;;;;;;;;4953708;29;20082;-67
2024/01/15 11:32:41;;;;;;;5.88;2.40;;;;;;;;;;4952788;29;20174;-66
2024/01/15 11:35:09;;;;;;;4.65;2.63;;;;;;;;;;4952328;29;20055;-66
2024/01/15 11:37:51;;;;;;;8.90;2.30;;;;;;;;;;4952010;29;20048;-69
2024/01/15 11:40:18;;;;;;;6.28;3.28;;;;;;;;;;4952359;29;20149;-67
2024/01/15 11:42:47;;;;;;;8.10;2.88;;;;;;;;;;4951864;29;20058;-67
2024/01/15 11:45:18;;;;;;;7.38;2.10;;;;;;;;;;4952252;29;20146;-65
2024/01/15 11:47:44;;;;;;;5.30;2.60;;;;;;;;;;4951797;29;20184;-65
2024/01/15 11:50:11;;;;;;;4.47;2.30;;;;;;;;;;4951836;29;20082;-65
2024/01/15 11:52:38;;;;;;;4.13;2.67;;;;;;;;;;4951394;28;20106;-66
2024/01/15 11:55:24;;;;;;;7.03;2.95;;;;;;;;;;4930658;29;20134;-66
2024/01/15 11:57:51;;;;;;;3.90;2.83;;;;;;;;;;4936845;29;20452;-69
2024/01/15 12:00:18;;;;;;;6.15;3.88;;;;;;;;;;4951996;29;20480;-66
2024/01/15 12:02:46;;;;;;;9.57;2.95;;;;;;;;;;4952100;29;20167;-65
2024/01/15 12:05:13;;;;;;;4.25;2.80;;;;;;;;;;4951664;29;20480;-65
2024/01/15 12:07:43;;;;;;;7.95;3.05;;;;;;;;;;4951260;29;20145;-65
2024/01/15 12:10:11;;;;;;;4.63;2.38;;;;;;;;;;4934643;29;20043;-66
2024/01/15 12:12:49;;;;;;;6.57;2.35;;;;;;;;;;4951642;29;20314;-66
2024/01/15 12:15:16;;;;;;;5.75;2.70;;;;;;;;;;4951272;29;20061;-66
2024/01/15 12:17:42;;;;;;;3.80;2.38;;;;;;;;;;4934103;29;20053;-65
2024/01/15 12:20:09;;;;;;;3.58;2.10;;;;;;;;;;4934067;29;20047;-65
2024/01/15 12:22:36;;;;;;;5.45;2.60;;;;;;;;;;4951701;29;20059;-67
2024/01/15 12:25:23;;;;;;;2.42;1.70;;;;;;;;;;4947123;28;20051;-66
2024/01/15 12:27:49;;;;;;;5.90;2.50;;;;;;;;;;4950988;29;20047;-65
2024/01/15 12:30:16;;;;;;;7.90;3.05;;;;;;;;;;4933936;29;20427;-65
2024/01/15 12:32:42;;;;;;;2.78;2.10;;;;;;;;;;4951503;29;20130;-63
2024/01/15 12:35:12;;;;;;;4.15;2.60;;;;;;;;;;4951246;29;20129;-61
2024/01/15 12:37:39;;;;;;;6.20;2.30;;;;;;;;;;4950676;29;20047;-63
2024/01/15 12:40:06;;;;;;;9.60;3.30;;;;;;;;;;4951338;29;20226;-64
2024/01/15 12:42:33;;;;;;;4.35;2.00;;;;;;;;;;4951255;29;20142;-63
2024/01/15 12:45:00;;;;;;;4.63;2.22;;;;;;;;;;4951196;29;20051;-63
2024/01/15 12:47:26;;;;;;;7.28;2.50;;;;;;;;;;4933875;29;20471;-66
2024/01/15 12:49:54;;;;;;;10.25;3.03;;;;;;;;;;4933941;29;20051;-64
2024/01/15 12:52:31;;;;;;;5.90;3.00;;;;;;;;;;4950789;28;20059;-65
2024/01/15 12:54:57;;;;;;;8.02;2.65;;;;;;;;;;4949916;28;20084;-64
2024/01/15 12:57:24;;;;;;;7.30;3.42;;;;;;;;;;4950257;29;20113;-64
2024/01/15 12:59:50;;;;;;;5.95;3.08;;;;;;;;;;4933906;29;20055;-64
2024/01/15 13:02:17;;;;;;;6.13;2.72;;;;;;;;;;4933492;29;20063;-64
2024/01/15 13:04:44;;;;;;;6.97;3.53;;;;;;;;;;4950949;29;20051;-67
2024/01/15 13:07:10;;;;;;;7.07;3.00;;;;;;;;;;4933126;29;20618;-66
2024/01/15 13:09:37;;;;;;;11.80;3.25;;;;;;;;;;4950598;28;20078;-65
2024/01/15 13:12:03;;;;;;;7.75;3.53;;;;;;;;;;4950044;29;20047;-64
2024/01/15 13:14:30;;;;;;;13.00;4.75;;;;;;;;;;4950262;28;20047;-63
2024/01/15 13:16:56;;;;;;;11.07;4.20;;;;;;;;;;4933289;29;20117;-63
2024/01/15 13:19:23;;;;;;;7.35;3.88;;;;;;;;;;4950206;28;20058;-63
2024/01/15 13:21:51;;;;;;;9.52;3.80;;;;;;;;;;4950451;29;20146;-63
2024/01/15 13:24:17;;;;;;;9.50;4.18;;;;;;;;;;4950058;28;20543;-64
2024/01/15 13:26:44;;;;;;;11.85;4.18;;;;;;;;;;4949632;28;20050;-65
2024/01/15 13:29:10;;;;;;;8.90;4.25;;;;;;;;;;4949817;29;20043;-63
2024/01/15 13:31:38;;;;;;;8.57;4.20;;;;;;;;;;4951406;29;20055;-64
2024/01/15 13:34:04;;;;;;;10.25;4.18;;;;;;;;;;4949790;29;20058;-64
2024/01/15 13:36:31;;;;;;;7.70;3.85;;;;;;;;;;4950901;29;20666;-63
2024/01/15 13:38:58;;;;;;;10.32;4.10;;;;;;;;;;4933519;29;20059;-64
2024/01/15 13:41:27;;;;;;;10.45;4.47;;;;;;;;;;4951578;29;20047;-64
2024/01/15 13:43:54;;;;;;;7.70;4.32;;;;;;;;;;4950317;29;20050;-63
2024/01/15 13:46:21;;;;;;;11.98;4.35;;;;;;;;;;4949795;29;20129;-64
2024/01/15 13:48:48;;;;;;;13.00;4.55;;;;;;;;;;4949040;29;20078;-63
2024/01/15 13:51:14;;;;;;;14.80;4.97;;;;;;;;;;4931981;29;20127;-63
2024/01/15 13:53:41;;;;;;;12.30;5.05;;;;;;;;;;4949821;29;20134;-64
2024/01/15 13:56:09;;;;;;;9.02;4.75;;;;;;;;;;4949011;28;20134;-64
2024/01/15 13:58:37;;;;;;;13.18;4.85;;;;;;;;;;4949540;29;20099;-66
2024/01/15 14:01:05;;;;;;;14.00;5.50;;;;;;;;;;4950280;29;20337;-67
2024/01/15 14:03:32;;;;;;;8.40;3.75;;;;;;;;;;4949648;29;20137;-65
2024/01/15 14:06:02;;;;;;;11.57;3.97;;;;;;;;;;4949225;29;20063;-65
2024/01/15 14:08:29;;;;;;;13.70;5.13;;;;;;;;;;4949067;28;20055;-65
2024/01/15 14:10:56;;;;;;;12.02;6.03;;;;;;;;;;4949181;28;20722;-66
2024/01/15 14:13:23;;;;;;;12.52;5.10;;;;;;;;;;4948467;29;20061;-69
2024/01/15 14:15:49;;;;;;;9.32;3.10;;;;;;;;;;4949612;29;20059;-67
2024/01/15 14:18:16;;;;;;;7.70;3.33;;;;;;;;;;4931544;28;20142;-66
2024/01/15 14:20:44;;;;;;;9.38;3.17;;;;;;;;;;4949247;28;20563;-69
2024/01/15 14:23:10;;;;;;;14.50;3.78;;;;;;;;;;4951415;28;20401;-66
2024/01/15 14:25:37;;;;;;;12.98;3.88;;;;;;;;;;4952635;28;20058;-66
2024/01/15 14:28:03;;;;;;;12.32;4.47;;;;;;;;;;4952343;29;20047;-68
2024/01/15 14:30:30;;;;;;;12.70;3.50;;;;;;;;;;4949832;29;20063;-68
2024/01/15 14:32:56;;;;;;;11.20;3.20;;;;;;;;;;4943189;29;20055;-65